sensor_id;sensor_type;location;lat;lon;timestamp;P1;P2;P0
45990;PMS5003;31721;41.740;-88.000;2023-04-01T00:01:51;18;16;
45990;PMS5003;31721;41.740;-88.000;2023-04-01T00:04:19;14;14;
45990;PMS5003;31721;41.740;-88.000;2023-04-01T00:06:47;19;16;
45990;PMS5003;31721;41.740;-88.000;2023-04-01T00:09:15;16;15;
45990;PMS5003;31721;41.740;-88.000;2023-04-01T00:11:43;20;19;
45990;PMS5003;31721;41.740;-88.000;2023-04-01T00:14:11;14;13;
45990;PMS5003;31721;41.740;-88.000;2023-04-01T00:16:38;16;13;
45990;PMS5003;31721;41.740;-88.000;2023-04-01T00:19:07;18;15;
45990;PMS5003;31721;41.740;-88.000;2023-04-01T00:21:34;24;22;
45990;PMS5003;31721;41.740;-88.000;2023-04-01T00:24:02;26;19;
45990;PMS5003;31721;41.740;-88.000;2023-04-01T00:26:30;15;15;
45990;PMS5003;31721;41.740;-88.000;2023-04-01T00:28:58;18;17;
45990;PMS5003;31721;41.740;-88.000;2023-04-01T00:31:26;19;19;
45990;PMS5003;31721;41.740;-88.000;2023-04-01T00:33:54;16;16;
45990;PMS5003;31721;41.740;-88.000;2023-04-01T00:36:22;12;12;
45990;PMS5003;31721;41.740;-88.000;2023-04-01T00:38:50;13;13;
45990;PMS5003;31721;41.740;-88.000;2023-04-01T00:41:19;17;16;
45990;PMS5003;31721;41.740;-88.000;2023-04-01T00:43:47;22;22;
45990;PMS5003;31721;41.740;-88.000;2023-04-01T00:46:17;19;17;
45990;PMS5003;31721;41.740;-88.000;2023-04-01T00:48:47;18;15;
45990;PMS5003;31721;41.740;-88.000;2023-04-01T00:51:18;22;20;
45990;PMS5003;31721;41.740;-88.000;2023-04-01T00:53:50;14;13;
45990;PMS5003;31721;41.740;-88.000;2023-04-01T00:56:21;12;12;
45990;PMS5003;31721;41.740;-88.000;2023-04-01T00:58:54;19;16;
45990;PMS5003;31721;41.740;-88.000;2023-04-01T01:01:25;15;13;
45990;PMS5003;31721;41.740;-88.000;2023-04-01T01:03:54;21;19;
45990;PMS5003;31721;41.740;-88.000;2023-04-01T01:06:25;18;16;
45990;PMS5003;31721;41.740;-88.000;2023-04-01T01:09:05;18;17;
45990;PMS5003;31721;41.740;-88.000;2023-04-01T01:11:41;12;11;
45990;PMS5003;31721;41.740;-88.000;2023-04-01T01:14:18;11;11;
45990;PMS5003;31721;41.740;-88.000;2023-04-01T01:16:59;12;11;
45990;PMS5003;31721;41.740;-88.000;2023-04-01T01:19:43;4;3;
45990;PMS5003;31721;41.740;-88.000;2023-04-01T01:22:27;3;3;
45990;PMS5003;31721;41.740;-88.000;2023-04-01T01:25:14;7;3;
45990;PMS5003;31721;41.740;-88.000;2023-04-01T01:27:49;3;3;
45990;PMS5003;31721;41.740;-88.000;2023-04-01T01:30:29;6;3;
45990;PMS5003;31721;41.740;-88.000;2023-04-01T01:33:17;5;5;
45990;PMS5003;31721;41.740;-88.000;2023-04-01T01:36:00;3;3;
45990;PMS5003;31721;41.740;-88.000;2023-04-01T01:38:32;3;2;
45990;PMS5003;31721;41.740;-88.000;2023-04-01T01:41:02;3;2;
45990;PMS5003;31721;41.740;-88.000;2023-04-01T01:43:33;2;2;
45990;PMS5003;31721;41.740;-88.000;2023-04-01T01:46:06;2;2;
45990;PMS5003;31721;41.740;-88.000;2023-04-01T01:48:37;1;1;
45990;PMS5003;31721;41.740;-88.000;2023-04-01T01:51:08;4;4;
45990;PMS5003;31721;41.740;-88.000;2023-04-01T01:53:36;3;2;
45990;PMS5003;31721;41.740;-88.000;2023-04-01T01:56:04;2;1;
45990;PMS5003;31721;41.740;-88.000;2023-04-01T01:58:32;1;1;
45990;PMS5003;31721;41.740;-88.000;2023-04-01T02:01:05;2;2;
45990;PMS5003;31721;41.740;-88.000;2023-04-01T02:03:36;5;5;
45990;PMS5003;31721;41.740;-88.000;2023-04-01T02:06:07;1;1;
45990;PMS5003;31721;41.740;-88.000;2023-04-01T02:08:39;1;1;
45990;PMS5003;31721;41.740;-88.000;2023-04-01T02:11:10;2;2;
45990;PMS5003;31721;41.740;-88.000;2023-04-01T02:13:41;2;1;
45990;PMS5003;31721;41.740;-88.000;2023-04-01T02:16:15;2;2;
45990;PMS5003;31721;41.740;-88.000;2023-04-01T02:18:49;4;2;
45990;PMS5003;31721;41.740;-88.000;2023-04-01T02:21:21;2;2;
45990;PMS5003;31721;41.740;-88.000;2023-04-01T02:23:52;2;2;
45990;PMS5003;31721;41.740;-88.000;2023-04-01T02:26:22;3;3;
45990;PMS5003;31721;41.740;-88.000;2023-04-01T02:28:51;3;3;
45990;PMS5003;31721;41.740;-88.000;2023-04-01T02:31:20;2;2;
45990;PMS5003;31721;41.740;-88.000;2023-04-01T02:33:50;0;0;
45990;PMS5003;31721;41.740;-88.000;2023-04-01T02:36:19;5;3;
45990;PMS5003;31721;41.740;-88.000;2023-04-01T02:38:47;2;2;
45990;PMS5003;31721;41.740;-88.000;2023-04-01T02:41:16;1;1;
45990;PMS5003;31721;41.740;-88.000;2023-04-01T02:43:43;2;2;
45990;PMS5003;31721;41.740;-88.000;2023-04-01T02:46:12;3;2;
45990;PMS5003;31721;41.740;-88.000;2023-04-01T02:48:40;3;2;
45990;PMS5003;31721;41.740;-88.000;2023-04-01T02:51:08;3;2;
45990;PMS5003;31721;41.740;-88.000;2023-04-01T02:53:36;2;2;
45990;PMS5003;31721;41.740;-88.000;2023-04-01T02:56:04;4;4;
45990;PMS5003;31721;41.740;-88.000;2023-04-01T02:58:31;2;2;
45990;PMS5003;31721;41.740;-88.000;2023-04-01T03:00:59;3;2;
45990;PMS5003;31721;41.740;-88.000;2023-04-01T03:03:27;2;2;
45990;PMS5003;31721;41.740;-88.000;2023-04-01T03:05:55;3;2;
45990;PMS5003;31721;41.740;-88.000;2023-04-01T03:08:23;4;2;
45990;PMS5003;31721;41.740;-88.000;2023-04-01T03:10:51;5;2;
45990;PMS5003;31721;41.740;-88.000;2023-04-01T03:13:19;4;2;
45990;PMS5003;31721;41.740;-88.000;2023-04-01T03:15:47;4;3;
45990;PMS5003;31721;41.740;-88.000;2023-04-01T03:18:15;5;4;
45990;PMS5003;31721;41.740;-88.000;2023-04-01T03:20:43;2;2;
45990;PMS5003;31721;41.740;-88.000;2023-04-01T03:23:11;5;3;
45990;PMS5003;31721;41.740;-88.000;2023-04-01T03:25:40;4;3;
45990;PMS5003;31721;41.740;-88.000;2023-04-01T03:28:08;3;3;
45990;PMS5003;31721;41.740;-88.000;2023-04-01T03:30:37;2;2;
45990;PMS5003;31721;41.740;-88.000;2023-04-01T03:33:05;4;3;
45990;PMS5003;31721;41.740;-88.000;2023-04-01T03:35:33;5;4;
45990;PMS5003;31721;41.740;-88.000;2023-04-01T03:38:01;3;3;
45990;PMS5003;31721;41.740;-88.000;2023-04-01T03:40:29;6;4;
45990;PMS5003;31721;41.740;-88.000;2023-04-01T03:42:57;8;5;
45990;PMS5003;31721;41.740;-88.000;2023-04-01T03:45:25;4;3;
45990;PMS5003;31721;41.740;-88.000;2023-04-01T03:47:53;3;3;
45990;PMS5003;31721;41.740;-88.000;2023-04-01T03:50:21;4;4;
45990;PMS5003;31721;41.740;-88.000;2023-04-01T03:52:49;3;3;
45990;PMS5003;31721;41.740;-88.000;2023-04-01T03:55:17;5;5;
45990;PMS5003;31721;41.740;-88.000;2023-04-01T03:57:45;6;4;
45990;PMS5003;31721;41.740;-88.000;2023-04-01T04:00:13;6;6;
45990;PMS5003;31721;41.740;-88.000;2023-04-01T04:02:41;6;4;
45990;PMS5003;31721;41.740;-88.000;2023-04-01T04:05:09;4;4;
45990;PMS5003;31721;41.740;-88.000;2023-04-01T04:07:37;5;5;
45990;PMS5003;31721;41.740;-88.000;2023-04-01T04:10:05;7;5;
45990;PMS5003;31721;41.740;-88.000;2023-04-01T04:12:34;7;6;
45990;PMS5003;31721;41.740;-88.000;2023-04-01T04:15:02;7;7;
45990;PMS5003;31721;41.740;-88.000;2023-04-01T04:17:30;5;5;
45990;PMS5003;31721;41.740;-88.000;2023-04-01T04:19:59;7;5;
45990;PMS5003;31721;41.740;-88.000;2023-04-01T04:22:26;9;9;
45990;PMS5003;31721;41.740;-88.000;2023-04-01T04:24:54;5;5;
45990;PMS5003;31721;41.740;-88.000;2023-04-01T04:27:22;7;7;
45990;PMS5003;31721;41.740;-88.000;2023-04-01T04:29:50;9;8;
45990;PMS5003;31721;41.740;-88.000;2023-04-01T04:32:18;7;3;
45990;PMS5003;31721;41.740;-88.000;2023-04-01T04:34:46;12;12;
45990;PMS5003;31721;41.740;-88.000;2023-04-01T04:37:14;3;3;
45990;PMS5003;31721;41.740;-88.000;2023-04-01T04:39:42;5;5;
45990;PMS5003;31721;41.740;-88.000;2023-04-01T04:42:10;4;4;
45990;PMS5003;31721;41.740;-88.000;2023-04-01T04:44:38;4;4;
45990;PMS5003;31721;41.740;-88.000;2023-04-01T04:47:07;6;4;
45990;PMS5003;31721;41.740;-88.000;2023-04-01T04:49:34;8;8;
45990;PMS5003;31721;41.740;-88.000;2023-04-01T04:52:02;5;4;
45990;PMS5003;31721;41.740;-88.000;2023-04-01T04:54:31;4;4;
45990;PMS5003;31721;41.740;-88.000;2023-04-01T04:56:58;11;11;
45990;PMS5003;31721;41.740;-88.000;2023-04-01T04:59:26;5;5;
45990;PMS5003;31721;41.740;-88.000;2023-04-01T05:01:54;5;5;
45990;PMS5003;31721;41.740;-88.000;2023-04-01T05:04:22;7;5;
45990;PMS5003;31721;41.740;-88.000;2023-04-01T05:06:50;6;5;
45990;PMS5003;31721;41.740;-88.000;2023-04-01T05:09:18;7;5;
45990;PMS5003;31721;41.740;-88.000;2023-04-01T05:11:46;5;5;
45990;PMS5003;31721;41.740;-88.000;2023-04-01T05:14:15;7;5;
45990;PMS5003;31721;41.740;-88.000;2023-04-01T05:16:43;6;5;
45990;PMS5003;31721;41.740;-88.000;2023-04-01T05:19:12;8;7;
45990;PMS5003;31721;41.740;-88.000;2023-04-01T05:21:40;12;8;
45990;PMS5003;31721;41.740;-88.000;2023-04-01T05:24:08;6;6;
45990;PMS5003;31721;41.740;-88.000;2023-04-01T05:26:37;7;7;
45990;PMS5003;31721;41.740;-88.000;2023-04-01T05:29:05;9;7;
45990;PMS5003;31721;41.740;-88.000;2023-04-01T05:31:33;6;6;
45990;PMS5003;31721;41.740;-88.000;2023-04-01T05:34:02;10;9;
45990;PMS5003;31721;41.740;-88.000;2023-04-01T05:36:29;10;10;
45990;PMS5003;31721;41.740;-88.000;2023-04-01T05:38:57;9;6;
45990;PMS5003;31721;41.740;-88.000;2023-04-01T05:41:25;9;9;
45990;PMS5003;31721;41.740;-88.000;2023-04-01T05:43:53;11;10;
45990;PMS5003;31721;41.740;-88.000;2023-04-01T05:46:21;9;9;
45990;PMS5003;31721;41.740;-88.000;2023-04-01T05:48:48;17;12;
45990;PMS5003;31721;41.740;-88.000;2023-04-01T05:51:16;7;7;
45990;PMS5003;31721;41.740;-88.000;2023-04-01T05:53:44;9;7;
45990;PMS5003;31721;41.740;-88.000;2023-04-01T05:56:11;12;11;
45990;PMS5003;31721;41.740;-88.000;2023-04-01T05:58:39;9;9;
45990;PMS5003;31721;41.740;-88.000;2023-04-01T06:01:08;6;6;
45990;PMS5003;31721;41.740;-88.000;2023-04-01T06:03:37;10;9;
45990;PMS5003;31721;41.740;-88.000;2023-04-01T06:06:09;16;16;
45990;PMS5003;31721;41.740;-88.000;2023-04-01T06:08:40;10;8;
45990;PMS5003;31721;41.740;-88.000;2023-04-01T06:11:14;6;6;
45990;PMS5003;31721;41.740;-88.000;2023-04-01T06:13:52;10;10;
45990;PMS5003;31721;41.740;-88.000;2023-04-01T06:16:37;10;10;
45990;PMS5003;31721;41.740;-88.000;2023-04-01T06:19:17;6;6;
45990;PMS5003;31721;41.740;-88.000;2023-04-01T06:22:00;12;12;
45990;PMS5003;31721;41.740;-88.000;2023-04-01T06:24:53;9;9;
45990;PMS5003;31721;41.740;-88.000;2023-04-01T06:27:36;9;8;
45990;PMS5003;31721;41.740;-88.000;2023-04-01T06:30:24;6;6;
45990;PMS5003;31721;41.740;-88.000;2023-04-01T06:33:04;16;15;
45990;PMS5003;31721;41.740;-88.000;2023-04-01T06:35:45;13;12;
45990;PMS5003;31721;41.740;-88.000;2023-04-01T06:38:33;10;10;
45990;PMS5003;31721;41.740;-88.000;2023-04-01T06:41:21;10;10;
45990;PMS5003;31721;41.740;-88.000;2023-04-01T06:44:06;10;10;
45990;PMS5003;31721;41.740;-88.000;2023-04-01T06:46:44;10;10;
45990;PMS5003;31721;41.740;-88.000;2023-04-01T06:49:24;11;9;
45990;PMS5003;31721;41.740;-88.000;2023-04-01T06:52:05;11;10;
45990;PMS5003;31721;41.740;-88.000;2023-04-01T06:54:43;8;8;
45990;PMS5003;31721;41.740;-88.000;2023-04-01T06:57:18;11;10;
45990;PMS5003;31721;41.740;-88.000;2023-04-01T06:59:51;6;6;
45990;PMS5003;31721;41.740;-88.000;2023-04-01T07:02:23;11;10;
45990;PMS5003;31721;41.740;-88.000;2023-04-01T07:04:58;11;9;
45990;PMS5003;31721;41.740;-88.000;2023-04-01T07:07:29;11;8;
45990;PMS5003;31721;41.740;-88.000;2023-04-01T07:10:02;11;11;
45990;PMS5003;31721;41.740;-88.000;2023-04-01T07:12:38;10;10;
45990;PMS5003;31721;41.740;-88.000;2023-04-01T07:15:13;9;9;
45990;PMS5003;31721;41.740;-88.000;2023-04-01T07:17:45;12;12;
45990;PMS5003;31721;41.740;-88.000;2023-04-01T07:20:20;12;9;
45990;PMS5003;31721;41.740;-88.000;2023-04-01T07:22:52;9;9;
45990;PMS5003;31721;41.740;-88.000;2023-04-01T07:25:24;10;10;
45990;PMS5003;31721;41.740;-88.000;2023-04-01T07:27:56;11;11;
45990;PMS5003;31721;41.740;-88.000;2023-04-01T07:30:27;12;12;
45990;PMS5003;31721;41.740;-88.000;2023-04-01T07:33:07;10;10;
45990;PMS5003;31721;41.740;-88.000;2023-04-01T07:35:43;14;12;
45990;PMS5003;31721;41.740;-88.000;2023-04-01T07:38:21;15;12;
45990;PMS5003;31721;41.740;-88.000;2023-04-01T07:41:03;16;12;
45990;PMS5003;31721;41.740;-88.000;2023-04-01T07:43:43;11;8;
45990;PMS5003;31721;41.740;-88.000;2023-04-01T07:46:23;10;10;
45990;PMS5003;31721;41.740;-88.000;2023-04-01T07:49:06;15;10;
45990;PMS5003;31721;41.740;-88.000;2023-04-01T07:51:40;11;11;
45990;PMS5003;31721;41.740;-88.000;2023-04-01T07:54:18;12;11;
45990;PMS5003;31721;41.740;-88.000;2023-04-01T07:56:54;11;10;
45990;PMS5003;31721;41.740;-88.000;2023-04-01T07:59:29;10;9;
45990;PMS5003;31721;41.740;-88.000;2023-04-01T08:02:08;8;8;
45990;PMS5003;31721;41.740;-88.000;2023-04-01T08:04:51;17;11;
45990;PMS5003;31721;41.740;-88.000;2023-04-01T08:07:30;11;10;
45990;PMS5003;31721;41.740;-88.000;2023-04-01T08:10:10;13;11;
45990;PMS5003;31721;41.740;-88.000;2023-04-01T08:12:47;11;11;
45990;PMS5003;31721;41.740;-88.000;2023-04-01T08:15:25;13;11;
45990;PMS5003;31721;41.740;-88.000;2023-04-01T08:18:00;13;9;
45990;PMS5003;31721;41.740;-88.000;2023-04-01T08:20:39;9;9;
45990;PMS5003;31721;41.740;-88.000;2023-04-01T08:23:12;9;9;
45990;PMS5003;31721;41.740;-88.000;2023-04-01T08:25:45;14;11;
45990;PMS5003;31721;41.740;-88.000;2023-04-01T08:28:20;15;13;
45990;PMS5003;31721;41.740;-88.000;2023-04-01T08:30:55;14;14;
45990;PMS5003;31721;41.740;-88.000;2023-04-01T08:33:27;10;10;
45990;PMS5003;31721;41.740;-88.000;2023-04-01T08:35:59;9;9;
45990;PMS5003;31721;41.740;-88.000;2023-04-01T08:38:34;11;10;
45990;PMS5003;31721;41.740;-88.000;2023-04-01T08:41:13;15;11;
45990;PMS5003;31721;41.740;-88.000;2023-04-01T08:44:11;9;8;
45990;PMS5003;31721;41.740;-88.000;2023-04-01T08:47:03;16;15;
45990;PMS5003;31721;41.740;-88.000;2023-04-01T08:49:56;13;13;
45990;PMS5003;31721;41.740;-88.000;2023-04-01T08:52:43;10;10;
45990;PMS5003;31721;41.740;-88.000;2023-04-01T08:55:27;19;16;
45990;PMS5003;31721;41.740;-88.000;2023-04-01T08:58:11;14;10;
45990;PMS5003;31721;41.740;-88.000;2023-04-01T09:00:50;15;9;
45990;PMS5003;31721;41.740;-88.000;2023-04-01T09:03:33;12;12;
45990;PMS5003;31721;41.740;-88.000;2023-04-01T09:06:13;15;13;
45990;PMS5003;31721;41.740;-88.000;2023-04-01T09:08:59;14;10;
45990;PMS5003;31721;41.740;-88.000;2023-04-01T09:11:43;12;12;
45990;PMS5003;31721;41.740;-88.000;2023-04-01T09:14:31;13;13;
45990;PMS5003;31721;41.740;-88.000;2023-04-01T09:17:23;13;9;
45990;PMS5003;31721;41.740;-88.000;2023-04-01T09:20:17;14;13;
45990;PMS5003;31721;41.740;-88.000;2023-04-01T09:23:08;19;17;
45990;PMS5003;31721;41.740;-88.000;2023-04-01T09:25:55;15;13;
45990;PMS5003;31721;41.740;-88.000;2023-04-01T09:28:37;11;9;
45990;PMS5003;31721;41.740;-88.000;2023-04-01T09:31:18;13;11;
45990;PMS5003;31721;41.740;-88.000;2023-04-01T09:34:02;14;11;
45990;PMS5003;31721;41.740;-88.000;2023-04-01T09:36:43;12;12;
45990;PMS5003;31721;41.740;-88.000;2023-04-01T09:39:21;16;12;
45990;PMS5003;31721;41.740;-88.000;2023-04-01T09:42:07;15;10;
45990;PMS5003;31721;41.740;-88.000;2023-04-01T09:44:53;18;16;
45990;PMS5003;31721;41.740;-88.000;2023-04-01T09:47:33;10;10;
45990;PMS5003;31721;41.740;-88.000;2023-04-01T09:50:47;13;13;
45990;PMS5003;31721;41.740;-88.000;2023-04-01T09:53:30;13;13;
45990;PMS5003;31721;41.740;-88.000;2023-04-01T09:56:14;9;9;
45990;PMS5003;31721;41.740;-88.000;2023-04-01T10:03:25;13;9;
45990;PMS5003;31721;41.740;-88.000;2023-04-01T10:06:19;13;13;
45990;PMS5003;31721;41.740;-88.000;2023-04-01T10:09:33;14;9;
45990;PMS5003;31721;41.740;-88.000;2023-04-01T10:13:11;14;12;
45990;PMS5003;31721;41.740;-88.000;2023-04-01T10:21:57;13;11;
45990;PMS5003;31721;41.740;-88.000;2023-04-01T10:26:11;13;12;
45990;PMS5003;31721;41.740;-88.000;2023-04-01T10:29:15;12;12;
45990;PMS5003;31721;41.740;-88.000;2023-04-01T10:32:05;11;11;
45990;PMS5003;31721;41.740;-88.000;2023-04-01T10:34:55;13;12;
45990;PMS5003;31721;41.740;-88.000;2023-04-01T10:37:52;17;15;
45990;PMS5003;31721;41.740;-88.000;2023-04-01T10:40:44;12;12;
45990;PMS5003;31721;41.740;-88.000;2023-04-01T10:43:40;10;8;
45990;PMS5003;31721;41.740;-88.000;2023-04-01T10:47:19;11;10;
45990;PMS5003;31721;41.740;-88.000;2023-04-01T10:50:09;12;12;
45990;PMS5003;31721;41.740;-88.000;2023-04-01T10:52:56;12;12;
45990;PMS5003;31721;41.740;-88.000;2023-04-01T10:56:16;14;12;
45990;PMS5003;31721;41.740;-88.000;2023-04-01T10:59:07;15;14;
45990;PMS5003;31721;41.740;-88.000;2023-04-01T11:02:01;16;12;
45990;PMS5003;31721;41.740;-88.000;2023-04-01T11:05:05;15;14;
45990;PMS5003;31721;41.740;-88.000;2023-04-01T11:08:50;12;12;
45990;PMS5003;31721;41.740;-88.000;2023-04-01T11:11:57;12;11;
45990;PMS5003;31721;41.740;-88.000;2023-04-01T11:14:50;18;16;
45990;PMS5003;31721;41.740;-88.000;2023-04-01T11:18:02;10;10;
45990;PMS5003;31721;41.740;-88.000;2023-04-01T11:20:56;15;11;
45990;PMS5003;31721;41.740;-88.000;2023-04-01T11:24:21;14;11;
45990;PMS5003;31721;41.740;-88.000;2023-04-01T11:27:09;11;11;
45990;PMS5003;31721;41.740;-88.000;2023-04-01T11:29:51;11;11;
45990;PMS5003;31721;41.740;-88.000;2023-04-01T11:32:33;20;15;
45990;PMS5003;31721;41.740;-88.000;2023-04-01T11:35:25;12;12;
45990;PMS5003;31721;41.740;-88.000;2023-04-01T11:38:06;11;11;
45990;PMS5003;31721;41.740;-88.000;2023-04-01T11:40:46;9;9;
45990;PMS5003;31721;41.740;-88.000;2023-04-01T11:43:21;14;11;
45990;PMS5003;31721;41.740;-88.000;2023-04-01T11:45:57;12;11;
45990;PMS5003;31721;41.740;-88.000;2023-04-01T11:48:36;14;12;
45990;PMS5003;31721;41.740;-88.000;2023-04-01T11:51:19;14;12;
45990;PMS5003;31721;41.740;-88.000;2023-04-01T11:54:20;12;12;
45990;PMS5003;31721;41.740;-88.000;2023-04-01T11:57:01;16;15;
45990;PMS5003;31721;41.740;-88.000;2023-04-01T11:59:51;16;14;
45990;PMS5003;31721;41.740;-88.000;2023-04-01T12:02:30;11;11;
45990;PMS5003;31721;41.740;-88.000;2023-04-01T12:05:20;10;10;
45990;PMS5003;31721;41.740;-88.000;2023-04-01T12:08:01;16;14;
45990;PMS5003;31721;41.740;-88.000;2023-04-01T12:10:39;21;17;
45990;PMS5003;31721;41.740;-88.000;2023-04-01T12:13:18;16;16;
45990;PMS5003;31721;41.740;-88.000;2023-04-01T12:15:58;15;14;
45990;PMS5003;31721;41.740;-88.000;2023-04-01T12:18:41;16;14;
45990;PMS5003;31721;41.740;-88.000;2023-04-01T12:21:18;14;12;
45990;PMS5003;31721;41.740;-88.000;2023-04-01T12:24:04;15;13;
45990;PMS5003;31721;41.740;-88.000;2023-04-01T12:26:59;12;12;
45990;PMS5003;31721;41.740;-88.000;2023-04-01T12:29:47;19;14;
45990;PMS5003;31721;41.740;-88.000;2023-04-01T12:32:31;15;14;
45990;PMS5003;31721;41.740;-88.000;2023-04-01T12:35:13;14;11;
45990;PMS5003;31721;41.740;-88.000;2023-04-01T12:37:52;12;11;
45990;PMS5003;31721;41.740;-88.000;2023-04-01T12:40:37;14;12;
45990;PMS5003;31721;41.740;-88.000;2023-04-01T12:44:00;8;7;
45990;PMS5003;31721;41.740;-88.000;2023-04-01T12:46:54;7;7;
45990;PMS5003;31721;41.740;-88.000;2023-04-01T12:49:43;5;5;
45990;PMS5003;31721;41.740;-88.000;2023-04-01T12:52:25;5;3;
45990;PMS5003;31721;41.740;-88.000;2023-04-01T12:55:17;3;3;
45990;PMS5003;31721;41.740;-88.000;2023-04-01T12:58:51;3;3;
45990;PMS5003;31721;41.740;-88.000;2023-04-01T13:01:39;5;3;
45990;PMS5003;31721;41.740;-88.000;2023-04-01T13:04:25;7;5;
45990;PMS5003;31721;41.740;-88.000;2023-04-01T13:07:27;5;3;
45990;PMS5003;31721;41.740;-88.000;2023-04-01T13:11:09;6;5;
45990;PMS5003;31721;41.740;-88.000;2023-04-01T13:13:56;5;5;
45990;PMS5003;31721;41.740;-88.000;2023-04-01T13:16:37;3;3;
45990;PMS5003;31721;41.740;-88.000;2023-04-01T13:19:16;2;2;
45990;PMS5003;31721;41.740;-88.000;2023-04-01T13:21:51;5;5;
45990;PMS5003;31721;41.740;-88.000;2023-04-01T13:24:32;2;2;
45990;PMS5003;31721;41.740;-88.000;2023-04-01T13:27:11;2;2;
45990;PMS5003;31721;41.740;-88.000;2023-04-01T13:29:49;2;2;
45990;PMS5003;31721;41.740;-88.000;2023-04-01T13:32:29;5;5;
45990;PMS5003;31721;41.740;-88.000;2023-04-01T13:35:12;2;2;
45990;PMS5003;31721;41.740;-88.000;2023-04-01T13:37:54;3;3;
45990;PMS5003;31721;41.740;-88.000;2023-04-01T13:40:33;5;5;
45990;PMS5003;31721;41.740;-88.000;2023-04-01T13:43:10;3;2;
45990;PMS5003;31721;41.740;-88.000;2023-04-01T13:45:53;9;5;
45990;PMS5003;31721;41.740;-88.000;2023-04-01T13:48:39;6;3;
45990;PMS5003;31721;41.740;-88.000;2023-04-01T13:51:26;2;2;
45990;PMS5003;31721;41.740;-88.000;2023-04-01T13:54:16;7;6;
45990;PMS5003;31721;41.740;-88.000;2023-04-01T13:57:02;3;3;
45990;PMS5003;31721;41.740;-88.000;2023-04-01T13:59:47;11;10;
45990;PMS5003;31721;41.740;-88.000;2023-04-01T14:02:36;3;3;
45990;PMS5003;31721;41.740;-88.000;2023-04-01T14:05:24;6;5;
45990;PMS5003;31721;41.740;-88.000;2023-04-01T14:08:05;5;5;
45990;PMS5003;31721;41.740;-88.000;2023-04-01T14:10:43;5;3;
45990;PMS5003;31721;41.740;-88.000;2023-04-01T14:13:20;2;2;
45990;PMS5003;31721;41.740;-88.000;2023-04-01T14:16:01;5;3;
45990;PMS5003;31721;41.740;-88.000;2023-04-01T14:18:46;2;2;
45990;PMS5003;31721;41.740;-88.000;2023-04-01T14:21:29;5;3;
45990;PMS5003;31721;41.740;-88.000;2023-04-01T14:24:16;3;1;
45990;PMS5003;31721;41.740;-88.000;2023-04-01T14:26:56;3;3;
45990;PMS5003;31721;41.740;-88.000;2023-04-01T14:29:36;1;1;
45990;PMS5003;31721;41.740;-88.000;2023-04-01T14:32:14;2;2;
45990;PMS5003;31721;41.740;-88.000;2023-04-01T14:34:58;5;3;
45990;PMS5003;31721;41.740;-88.000;2023-04-01T14:37:48;5;5;
45990;PMS5003;31721;41.740;-88.000;2023-04-01T14:40:34;2;2;
45990;PMS5003;31721;41.740;-88.000;2023-04-01T14:43:19;2;2;
45990;PMS5003;31721;41.740;-88.000;2023-04-01T14:46:06;3;3;
45990;PMS5003;31721;41.740;-88.000;2023-04-01T14:51:02;5;3;
45990;PMS5003;31721;41.740;-88.000;2023-04-01T14:53:37;7;3;
45990;PMS5003;31721;41.740;-88.000;2023-04-01T14:56:10;3;2;
45990;PMS5003;31721;41.740;-88.000;2023-04-01T14:58:41;2;2;
45990;PMS5003;31721;41.740;-88.000;2023-04-01T15:01:16;3;3;
45990;PMS5003;31721;41.740;-88.000;2023-04-01T15:03:58;3;3;
45990;PMS5003;31721;41.740;-88.000;2023-04-01T15:06:43;3;3;
45990;PMS5003;31721;41.740;-88.000;2023-04-01T15:09:24;3;2;
45990;PMS5003;31721;41.740;-88.000;2023-04-01T15:12:03;3;3;
45990;PMS5003;31721;41.740;-88.000;2023-04-01T15:14:47;2;2;
45990;PMS5003;31721;41.740;-88.000;2023-04-01T15:17:31;5;5;
45990;PMS5003;31721;41.740;-88.000;2023-04-01T15:20:17;5;5;
45990;PMS5003;31721;41.740;-88.000;2023-04-01T15:22:59;5;3;
45990;PMS5003;31721;41.740;-88.000;2023-04-01T15:25:43;6;6;
45990;PMS5003;31721;41.740;-88.000;2023-04-01T15:28:25;6;6;
45990;PMS5003;31721;41.740;-88.000;2023-04-01T15:31:04;7;7;
45990;PMS5003;31721;41.740;-88.000;2023-04-01T15:33:43;8;8;
45990;PMS5003;31721;41.740;-88.000;2023-04-01T15:36:25;3;3;
45990;PMS5003;31721;41.740;-88.000;2023-04-01T15:39:04;1;1;
45990;PMS5003;31721;41.740;-88.000;2023-04-01T15:41:41;2;2;
45990;PMS5003;31721;41.740;-88.000;2023-04-01T15:44:31;6;3;
45990;PMS5003;31721;41.740;-88.000;2023-04-01T15:47:08;2;2;
45990;PMS5003;31721;41.740;-88.000;2023-04-01T15:50:02;6;3;
45990;PMS5003;31721;41.740;-88.000;2023-04-01T15:52:49;2;2;
45990;PMS5003;31721;41.740;-88.000;2023-04-01T15:55:27;3;3;
45990;PMS5003;31721;41.740;-88.000;2023-04-01T15:58:14;4;3;
45990;PMS5003;31721;41.740;-88.000;2023-04-01T16:00:56;8;8;
45990;PMS5003;31721;41.740;-88.000;2023-04-01T16:03:34;3;3;
45990;PMS5003;31721;41.740;-88.000;2023-04-01T16:06:14;6;3;
45990;PMS5003;31721;41.740;-88.000;2023-04-01T16:08:57;2;2;
45990;PMS5003;31721;41.740;-88.000;2023-04-01T16:11:35;3;3;
45990;PMS5003;31721;41.740;-88.000;2023-04-01T16:14:18;6;4;
45990;PMS5003;31721;41.740;-88.000;2023-04-01T16:17:00;2;2;
45990;PMS5003;31721;41.740;-88.000;2023-04-01T16:19:43;2;2;
45990;PMS5003;31721;41.740;-88.000;2023-04-01T16:22:20;2;2;
45990;PMS5003;31721;41.740;-88.000;2023-04-01T16:24:53;2;2;
45990;PMS5003;31721;41.740;-88.000;2023-04-01T16:27:30;3;2;
45990;PMS5003;31721;41.740;-88.000;2023-04-01T16:30:22;3;3;
45990;PMS5003;31721;41.740;-88.000;2023-04-01T16:33:02;1;1;
45990;PMS5003;31721;41.740;-88.000;2023-04-01T16:35:40;1;1;
45990;PMS5003;31721;41.740;-88.000;2023-04-01T16:38:15;2;2;
45990;PMS5003;31721;41.740;-88.000;2023-04-01T16:40:47;2;2;
45990;PMS5003;31721;41.740;-88.000;2023-04-01T16:43:28;2;1;
45990;PMS5003;31721;41.740;-88.000;2023-04-01T16:46:16;1;1;
45990;PMS5003;31721;41.740;-88.000;2023-04-01T16:48:59;0;0;
45990;PMS5003;31721;41.740;-88.000;2023-04-01T16:51:36;1;1;
45990;PMS5003;31721;41.740;-88.000;2023-04-01T16:54:13;1;1;
45990;PMS5003;31721;41.740;-88.000;2023-04-01T16:56:54;2;2;
45990;PMS5003;31721;41.740;-88.000;2023-04-01T16:59:33;1;1;
45990;PMS5003;31721;41.740;-88.000;2023-04-01T17:02:07;0;0;
45990;PMS5003;31721;41.740;-88.000;2023-04-01T17:04:42;2;2;
45990;PMS5003;31721;41.740;-88.000;2023-04-01T17:07:16;2;0;
45990;PMS5003;31721;41.740;-88.000;2023-04-01T17:09:58;1;1;
45990;PMS5003;31721;41.740;-88.000;2023-04-01T17:12:42;0;0;
45990;PMS5003;31721;41.740;-88.000;2023-04-01T17:15:17;1;1;
45990;PMS5003;31721;41.740;-88.000;2023-04-01T17:17:58;1;1;
45990;PMS5003;31721;41.740;-88.000;2023-04-01T17:20:35;2;1;
45990;PMS5003;31721;41.740;-88.000;2023-04-01T17:23:12;1;1;
45990;PMS5003;31721;41.740;-88.000;2023-04-01T17:25:52;1;1;
45990;PMS5003;31721;41.740;-88.000;2023-04-01T17:28:32;0;0;
45990;PMS5003;31721;41.740;-88.000;2023-04-01T17:31:11;1;1;
45990;PMS5003;31721;41.740;-88.000;2023-04-01T17:34:58;0;0;